Time;durP1;ratioP1;P1;durP2;ratioP2;P2;SDS_P1;SDS_P2;PMS_P1;PMS_P2;Temp;Humidity;BMP_temperature;BMP_pressure;BME280_temperature;BME280_humidity;BME280_pressure;Samples;Min_cycle;Max_cycle;Signal;HPM_P1;HPM_P2
2023/11/26 00:00:07;;;;;;;3.40;3.10;;;;;;;0.97;97.90;100096.00;4997648;28;20587;-81
2023/11/26 00:02:35;;;;;;;9.43;3.53;;;;;;;1.11;98.42;100083.34;4995708;28;20258;-80
2023/11/26 00:05:01;;;;;;;5.47;3.70;;;;;;;1.10;98.58;100091.88;4997686;28;20235;-80
2023/11/26 00:07:28;;;;;;;6.07;3.80;;;;;;;0.99;98.55;100099.47;4990325;28;20666;-82
2023/11/26 00:09:54;;;;;;;4.77;3.37;;;;;;;0.73;99.00;100098.19;4994931;28;20262;-81
2023/11/26 00:12:20;;;;;;;4.47;3.70;;;;;;;0.77;99.24;100084.56;4995341;28;20909;-80
2023/11/26 00:14:47;;;;;;;4.40;3.37;;;;;;;0.95;99.40;100084.84;4995391;28;20741;-82
2023/11/26 00:17:13;;;;;;;3.57;3.27;;;;;;;0.84;98.91;100081.25;4996580;28;20210;-81
2023/11/26 00:19:41;;;;;;;3.67;3.13;;;;;;;0.99;99.17;100083.16;4995002;28;20215;-83
2023/11/26 00:22:09;;;;;;;4.97;3.50;;;;;;;1.03;98.96;100084.97;4992953;28;20202;-82
2023/11/26 00:24:35;;;;;;;5.93;3.87;;;;;;;0.69;99.00;100096.41;4997491;28;20235;-83
2023/11/26 00:27:02;;;;;;;5.67;4.37;;;;;;;0.76;98.96;100083.69;4996372;28;20203;-80
2023/11/26 00:29:28;;;;;;;4.23;3.70;;;;;;;0.68;99.79;100076.72;4994485;28;20645;-83
2023/11/26 00:31:55;;;;;;;4.33;3.93;;;;;;;0.83;99.53;100079.50;4997352;28;20212;-81
2023/11/26 00:34:22;;;;;;;6.53;4.43;;;;;;;0.71;98.71;100079.31;4997077;28;20265;-81
2023/11/26 00:36:50;;;;;;;5.70;3.37;;;;;;;0.66;100.00;100070.69;4997619;28;20302;-81
2023/11/26 00:39:16;;;;;;;4.23;3.83;;;;;;;0.74;99.64;100064.84;5000848;28;20207;-83
2023/11/26 00:41:44;;;;;;;4.50;3.87;;;;;;;0.69;99.50;100076.72;5008059;28;20238;-82
2023/11/26 00:44:10;;;;;;;6.53;4.23;;;;;;;0.75;99.13;100079.41;4997723;28;20203;-81
2023/11/26 00:46:37;;;;;;;5.63;3.90;;;;;;;0.68;99.21;100082.72;5008551;28;20281;-80
2023/11/26 00:49:05;;;;;;;5.47;3.83;;;;;;;0.68;99.25;100079.28;5013239;28;20234;-83
2023/11/26 00:51:32;;;;;;;4.27;3.80;;;;;;;0.87;98.93;100086.41;5008519;28;20234;-82
2023/11/26 00:54:00;;;;;;;3.90;3.60;;;;;;;0.73;98.50;100093.06;5013631;28;20237;-80
2023/11/26 00:56:26;;;;;;;4.73;4.20;;;;;;;0.65;99.43;100086.94;5000703;28;20247;-82
2023/11/26 00:58:53;;;;;;;4.83;3.93;;;;;;;0.71;99.16;100090.47;5002306;28;20207;-80
2023/11/26 01:01:19;;;;;;;3.53;3.23;;;;;;;0.67;98.61;100096.38;5008669;28;20234;-81
2023/11/26 01:03:45;;;;;;;4.73;4.20;;;;;;;0.91;97.62;100098.50;5004849;28;20196;-80
2023/11/26 01:06:12;;;;;;;4.20;3.80;;;;;;;0.57;98.04;100115.06;5000238;28;20226;-81
2023/11/26 01:08:38;;;;;;;4.20;3.43;;;;;;;0.87;98.59;100100.97;5008021;28;20666;-83
2023/11/26 01:11:12;;;;;;;6.13;4.10;;;;;;;0.76;98.04;100113.66;5007555;28;20218;-81
2023/11/26 01:13:38;;;;;;;4.73;4.17;;;;;;;0.89;97.64;100117.28;5016362;28;20223;-79
2023/11/26 01:16:05;;;;;;;4.77;4.13;;;;;;;1.09;97.17;100126.16;5012848;28;20234;-81
2023/11/26 01:18:32;;;;;;;4.50;3.90;;;;;;;1.29;96.46;100146.13;5016600;28;20206;-81
2023/11/26 01:20:58;;;;;;;7.67;3.90;;;;;;;1.11;95.16;100172.44;5007447;28;20567;-82
2023/11/26 01:23:25;;;;;;;4.07;3.73;;;;;;;1.05;95.12;100180.94;4996753;28;20200;-80
2023/11/26 01:25:51;;;;;;;4.63;3.83;;;;;;;1.13;95.15;100179.34;5007840;28;20231;-81
2023/11/26 01:28:19;;;;;;;3.70;3.40;;;;;;;1.06;94.33;100192.94;5016782;28;20207;-80
2023/11/26 01:30:45;;;;;;;3.60;3.30;;;;;;;0.95;94.48;100208.19;5014090;28;20838;-81
2023/11/26 01:33:12;;;;;;;4.93;3.70;;;;;;;1.09;94.49;100202.38;5016362;28;20314;-82
2023/11/26 01:35:38;;;;;;;5.43;3.80;;;;;;;1.10;95.04;100211.84;5013606;28;20235;-84
2023/11/26 01:38:05;;;;;;;5.33;4.50;;;;;;;1.03;94.32;100217.72;5005285;28;20212;-80
2023/11/26 01:40:37;;;;;;;4.20;3.80;;;;;;;1.02;95.20;100210.84;5008701;28;20231;-80
2023/11/26 01:43:03;;;;;;;4.93;4.53;;;;;;;1.27;94.48;100212.97;5015447;28;20697;-79
2023/11/26 01:45:31;;;;;;;7.73;3.67;;;;;;;1.18;94.26;100229.09;5013909;28;20716;-80
2023/11/26 01:47:58;;;;;;;4.20;3.47;;;;;;;1.18;93.91;100230.81;5015759;28;20625;-80
2023/11/26 01:50:25;;;;;;;4.07;3.50;;;;;;;1.34;93.04;100242.19;5013954;28;20290;-83
2023/11/26 01:52:54;;;;;;;3.47;3.03;;;;;;;1.54;92.85;100250.22;5006565;28;20724;-81
2023/11/26 01:55:21;;;;;;;5.43;3.87;;;;;;;1.21;92.75;100272.00;5006973;28;20263;-82
2023/11/26 01:57:48;;;;;;;5.47;3.93;;;;;;;1.27;92.12;100259.25;5003644;28;20342;-79
2023/11/26 02:00:17;;;;;;;4.30;3.90;;;;;;;1.26;92.29;100274.66;4993333;28;20254;-82
2023/11/26 02:02:45;;;;;;;3.67;3.30;;;;;;;1.12;93.22;100272.69;5015179;28;20234;-82
2023/11/26 02:05:11;;;;;;;3.87;3.47;;;;;;;1.13;93.30;100264.16;5014605;28;20227;-81
2023/11/26 02:07:39;;;;;;;4.90;3.90;;;;;;;1.12;93.39;100256.41;5000256;28;20375;-82
2023/11/26 02:10:07;;;;;;;4.40;4.00;;;;;;;0.94;93.77;100250.13;5013107;28;20210;-80
2023/11/26 02:12:33;;;;;;;4.30;3.90;;;;;;;0.73;95.09;100244.63;5014744;28;20204;-79
2023/11/26 02:15:00;;;;;;;3.80;3.50;;;;;;;0.67;96.85;100206.84;5013949;28;20227;-81
2023/11/26 02:17:26;;;;;;;3.83;3.53;;;;;;;1.04;96.26;100196.31;5000376;28;20199;-79
2023/11/26 02:19:57;;;;;;;10.67;3.93;;;;;;;1.10;95.33;100204.13;5006703;28;20678;-82
2023/11/26 02:22:24;;;;;;;3.47;3.17;;;;;;;1.27;95.10;100212.97;5007629;28;20206;-79
2023/11/26 02:24:52;;;;;;;4.33;3.93;;;;;;;1.10;94.19;100230.69;5015204;28;20633;-81
2023/11/26 02:27:19;;;;;;;5.77;4.07;;;;;;;1.14;94.04;100239.31;5006419;28;20298;-82
2023/11/26 02:29:46;;;;;;;4.37;4.00;;;;;;;1.08;93.51;100250.38;5007753;28;20258;-82
2023/11/26 02:32:12;;;;;;;8.97;3.90;;;;;;;0.92;93.66;100253.53;5003009;28;21231;-80
2023/11/26 02:34:39;;;;;;;5.63;3.90;;;;;;;0.78;94.52;100250.72;5009598;28;20231;-81
2023/11/26 02:37:05;;;;;;;4.10;3.70;;;;;;;0.89;94.98;100232.91;5006800;28;20245;-82
2023/11/26 02:39:31;;;;;;;6.20;4.13;;;;;;;0.99;94.40;100233.09;5009970;28;20214;-81
2023/11/26 02:41:59;;;;;;;4.57;3.53;;;;;;;0.96;94.19;100227.03;5003226;28;20210;-80
2023/11/26 02:44:26;;;;;;;4.70;4.13;;;;;;;0.83;94.29;100222.53;5014870;28;20720;-82
2023/11/26 02:46:52;;;;;;;3.53;3.23;;;;;;;0.86;94.91;100222.59;5000073;28;20215;-80
2023/11/26 02:49:19;;;;;;;4.13;3.80;;;;;;;0.82;95.03;100231.09;4998849;28;20246;-81
2023/11/26 02:51:46;;;;;;;3.97;3.67;;;;;;;0.76;94.57;100229.28;5006618;28;20249;-80
2023/11/26 02:54:12;;;;;;;4.37;4.07;;;;;;;0.89;94.75;100225.19;5014643;28;20265;-81
2023/11/26 02:56:42;;;;;;;4.13;3.63;;;;;;;0.88;95.11;100221.75;5006394;28;20242;-81
2023/11/26 02:59:12;;;;;;;4.43;3.87;;;;;;;1.09;94.88;100225.50;5015067;28;20594;-80
2023/11/26 03:01:38;;;;;;;3.60;3.30;;;;;;;1.05;94.80;100234.91;5001871;28;20211;-80
2023/11/26 03:04:06;;;;;;;7.20;3.70;;;;;;;0.98;93.74;100240.78;5012389;28;20203;-82
2023/11/26 03:06:33;;;;;;;5.20;3.47;;;;;;;1.09;94.33;100253.78;5008221;28;20234;-82
2023/11/26 03:09:00;;;;;;;3.67;3.07;;;;;;;0.99;92.76;100263.03;5014321;28;20211;-79
2023/11/26 03:14:27;;;;;;;4.67;2.90;;;;;;;1.31;91.93;100280.72;4984964;28;20239;-81
2023/11/26 03:16:54;;;;;;;6.07;3.83;;;;;;;1.44;91.85;100297.22;4986290;28;20607;-81
2023/11/26 03:19:21;;;;;;;3.53;3.20;;;;;;;1.39;91.16;100313.44;4993876;28;20214;-81
2023/11/26 03:21:48;;;;;;;3.33;2.90;;;;;;;1.41;90.36;100334.03;4998459;28;20211;-81
2023/11/26 03:24:16;;;;;;;3.20;2.90;;;;;;;1.25;91.48;100337.19;5013370;28;20209;-79
2023/11/26 03:26:44;;;;;;;3.27;3.07;;;;;;;1.35;91.09;100339.94;4996851;28;20227;-82
2023/11/26 03:29:10;;;;;;;5.10;3.50;;;;;;;1.21;90.21;100358.53;5012657;28;20574;-82
2023/11/26 03:31:40;;;;;;;3.83;3.53;;;;;;;1.23;90.10;100372.28;5002804;28;20222;-79
2023/11/26 03:34:08;;;;;;;4.27;3.40;;;;;;;1.29;90.33;100364.66;5003776;28;20238;-82
2023/11/26 03:36:35;;;;;;;4.97;3.43;;;;;;;1.10;90.57;100376.34;5003541;28;20231;-82
2023/11/26 03:39:01;;;;;;;4.30;3.23;;;;;;;1.03;91.06;100365.09;5003147;28;20294;-81
2023/11/26 03:41:28;;;;;;;4.67;2.80;;;;;;;1.23;91.31;100359.41;5008543;28;20230;-82
2023/11/26 03:43:55;;;;;;;3.87;3.57;;;;;;;1.09;90.65;100362.63;5013759;28;20210;-81
2023/11/26 03:46:21;;;;;;;3.90;3.30;;;;;;;0.95;91.53;100362.38;5001762;28;20339;-83
2023/11/26 03:48:49;;;;;;;8.17;4.23;;;;;;;0.96;92.70;100334.97;5009746;28;20210;-83
2023/11/26 03:51:16;;;;;;;5.00;4.13;;;;;;;0.98;91.57;100341.00;5008452;28;20230;-81
2023/11/26 03:53:43;;;;;;;4.57;3.80;;;;;;;0.95;92.41;100338.34;5005866;28;20667;-80
2023/11/26 03:56:09;;;;;;;3.90;3.47;;;;;;;0.97;91.75;100335.00;5005509;28;20255;-82
2023/11/26 03:58:36;;;;;;;4.80;4.40;;;;;;;0.96;92.45;100329.81;5008041;28;20336;-82
2023/11/26 04:01:02;;;;;;;4.03;3.60;;;;;;;1.06;92.69;100318.88;5006288;28;20237;-81
2023/11/26 04:03:29;;;;;;;4.70;4.30;;;;;;;0.91;92.37;100326.28;5002335;28;20227;-82
2023/11/26 04:05:56;;;;;;;4.60;3.93;;;;;;;0.93;93.07;100324.63;5006381;28;20314;-80
2023/11/26 04:08:23;;;;;;;6.27;4.00;;;;;;;0.81;93.71;100314.97;4993840;28;20210;-81
2023/11/26 04:10:49;;;;;;;6.10;4.90;;;;;;;0.96;93.19;100306.69;5006121;28;20230;-81
2023/11/26 04:13:17;;;;;;;6.47;4.37;;;;;;;0.84;93.34;100312.47;4995641;28;20783;-81
2023/11/26 04:15:46;;;;;;;5.10;4.60;;;;;;;1.05;93.59;100308.56;5007548;28;20752;-82
2023/11/26 04:18:13;;;;;;;6.70;4.30;;;;;;;0.95;92.68;100315.22;5003729;28;20206;-80
2023/11/26 04:20:40;;;;;;;4.87;4.43;;;;;;;0.90;93.94;100304.03;5013283;28;20265;-79
2023/11/26 04:23:07;;;;;;;4.97;3.70;;;;;;;0.81;94.55;100296.13;5010453;28;20207;-82
2023/11/26 04:25:34;;;;;;;4.73;3.87;;;;;;;0.81;94.41;100304.69;5010335;28;20299;-81
2023/11/26 04:28:00;;;;;;;6.80;3.83;;;;;;;0.72;93.66;100299.41;5001909;28;20245;-81
2023/11/26 04:30:27;;;;;;;7.80;3.77;;;;;;;0.62;93.79;100298.38;4997417;28;20199;-81
2023/11/26 04:32:54;;;;;;;4.37;3.97;;;;;;;0.81;94.08;100286.72;5004011;28;20214;-82
2023/11/26 04:35:20;;;;;;;5.03;4.10;;;;;;;0.55;94.01;100296.50;5009844;28;20326;-79
2023/11/26 04:37:46;;;;;;;4.60;3.97;;;;;;;0.66;94.21;100292.44;4999557;28;20680;-81
2023/11/26 04:40:15;;;;;;;4.77;4.33;;;;;;;0.57;94.73;100290.56;5013034;28;20213;-82
2023/11/26 04:42:42;;;;;;;6.23;4.53;;;;;;;0.74;94.42;100280.63;5003226;28;20207;-81
2023/11/26 04:45:09;;;;;;;4.60;4.20;;;;;;;0.83;93.84;100290.19;5017226;28;20273;-81
2023/11/26 04:47:36;;;;;;;4.60;4.20;;;;;;;0.95;94.27;100293.00;5015434;28;20203;-81
2023/11/26 04:50:02;;;;;;;8.27;4.60;;;;;;;0.81;94.40;100296.13;5001232;28;20238;-84
2023/11/26 04:52:29;;;;;;;6.50;4.23;;;;;;;0.88;95.17;100285.16;4994051;28;20217;-80
2023/11/26 04:54:55;;;;;;;4.97;4.47;;;;;;;0.63;95.68;100282.09;5016758;28;20234;-81
2023/11/26 04:57:23;;;;;;;6.10;5.03;;;;;;;0.85;95.76;100272.22;5001972;28;20573;-80
2023/11/26 04:59:50;;;;;;;5.20;4.80;;;;;;;0.79;95.57;100278.13;5010852;28;20258;-81
2023/11/26 05:02:18;;;;;;;5.23;4.73;;;;;;;0.87;96.01;100266.25;4998448;28;20207;-80
2023/11/26 05:04:45;;;;;;;6.57;5.20;;;;;;;0.96;95.16;100275.88;5016889;28;20600;-79
2023/11/26 05:07:11;;;;;;;4.80;4.37;;;;;;;1.14;95.59;100277.88;5007156;28;20203;-83
2023/11/26 05:09:39;;;;;;;5.60;5.10;;;;;;;1.09;95.06;100275.25;5005320;28;20211;-79
2023/11/26 05:12:06;;;;;;;5.33;4.83;;;;;;;0.96;94.66;100288.72;5004907;28;20632;-82
2023/11/26 05:14:34;;;;;;;12.07;5.83;;;;;;;0.95;94.56;100289.53;5012949;28;20223;-80
2023/11/26 05:17:01;;;;;;;6.53;4.57;;;;;;;1.21;94.64;100287.44;5004342;28;20626;-82
2023/11/26 05:19:27;;;;;;;4.67;4.27;;;;;;;1.15;93.70;100297.59;5008589;28;20257;-79
2023/11/26 05:21:54;;;;;;;5.60;5.07;;;;;;;1.16;94.05;100307.03;5000795;28;20215;-83
2023/11/26 05:24:20;;;;;;;4.93;3.80;;;;;;;1.04;94.04;100310.25;5006887;28;20203;-84
2023/11/26 05:26:48;;;;;;;6.10;4.40;;;;;;;1.21;93.83;100309.69;5003622;28;20231;-82
2023/11/26 05:29:14;;;;;;;5.10;4.60;;;;;;;1.29;92.55;100318.38;5014136;28;20261;-81
2023/11/26 05:31:42;;;;;;;4.10;3.70;;;;;;;1.18;92.11;100336.22;5003395;28;20717;-83
2023/11/26 05:34:09;;;;;;;3.90;3.50;;;;;;;1.23;92.68;100339.75;5005023;28;20223;-82
2023/11/26 05:36:35;;;;;;;4.23;3.83;;;;;;;1.31;91.90;100347.56;5012742;28;20266;-81
2023/11/26 05:39:02;;;;;;;4.43;3.97;;;;;;;1.41;91.95;100354.63;5012760;28;20591;-83
2023/11/26 05:41:29;;;;;;;6.03;3.20;;;;;;;1.41;91.29;100353.72;5012645;28;20355;-82
2023/11/26 05:43:56;;;;;;;3.47;3.17;;;;;;;1.22;91.91;100358.56;5003136;28;20641;-83
2023/11/26 05:46:23;;;;;;;4.30;3.90;;;;;;;1.33;91.91;100369.91;5013505;28;20326;-83
2023/11/26 05:48:51;;;;;;;4.27;3.90;;;;;;;1.34;91.04;100365.63;5010384;28;20211;-81
2023/11/26 05:51:21;;;;;;;4.23;3.60;;;;;;;1.39;90.59;100374.31;5012912;28;20211;-82
2023/11/26 05:53:47;;;;;;;5.23;2.77;;;;;;;1.50;90.59;100383.03;4990084;28;20255;-81
2023/11/26 05:56:14;;;;;;;6.27;3.80;;;;;;;1.51;89.94;100404.50;5004930;28;20250;-82
2023/11/26 05:58:40;;;;;;;3.10;2.70;;;;;;;1.48;89.52;100410.44;5004362;28;20208;-79
2023/11/26 06:01:07;;;;;;;3.83;3.23;;;;;;;1.57;90.24;100418.34;5003715;28;20313;-80
2023/11/26 06:03:33;;;;;;;3.20;3.00;;;;;;;1.67;90.50;100423.66;4997565;28;20215;-84
2023/11/26 06:06:01;;;;;;;3.43;2.70;;;;;;;1.65;89.04;100430.47;4999861;28;20603;-80
2023/11/26 06:08:27;;;;;;;5.13;2.90;;;;;;;1.78;89.53;100438.44;4998613;28;20204;-80
2023/11/26 06:10:54;;;;;;;3.03;2.57;;;;;;;1.90;88.75;100445.47;5015052;28;20214;-82
2023/11/26 06:13:20;;;;;;;4.53;2.60;;;;;;;1.90;88.77;100460.03;4998874;28;20670;-81
2023/11/26 06:15:47;;;;;;;2.73;2.20;;;;;;;1.96;88.71;100466.19;5010034;28;20296;-83
2023/11/26 06:18:13;;;;;;;3.00;2.60;;;;;;;2.03;88.09;100474.00;5003519;28;20713;-83
2023/11/26 06:20:40;;;;;;;2.50;2.30;;;;;;;2.00;87.97;100477.38;4999715;28;20207;-83
2023/11/26 06:23:08;;;;;;;3.53;2.20;;;;;;;1.99;87.34;100494.53;5006762;28;20207;-83
2023/11/26 06:25:34;;;;;;;2.77;2.43;;;;;;;2.09;87.50;100502.41;5012211;28;20290;-82
2023/11/26 06:28:00;;;;;;;2.23;2.00;;;;;;;2.11;87.27;100511.03;5004905;28;20203;-81
2023/11/26 06:30:27;;;;;;;3.10;2.80;;;;;;;2.16;86.85;100522.25;5004081;28;20217;-81
2023/11/26 06:32:54;;;;;;;3.30;2.43;;;;;;;2.17;86.52;100531.72;5003742;28;20294;-82
2023/11/26 06:35:21;;;;;;;2.17;1.87;;;;;;;2.16;86.89;100535.13;5014391;28;20328;-82
2023/11/26 06:37:48;;;;;;;2.43;2.23;;;;;;;2.18;86.32;100541.16;5007340;28;20211;-81
2023/11/26 06:40:15;;;;;;;2.00;1.80;;;;;;;2.12;86.40;100543.63;4995668;28;20212;-81
2023/11/26 06:42:42;;;;;;;3.77;1.70;;;;;;;2.19;86.43;100548.06;5002190;28;20211;-81
2023/11/26 06:45:10;;;;;;;2.40;1.90;;;;;;;2.16;86.63;100546.31;5010431;28;20233;-81
2023/11/26 06:47:36;;;;;;;3.90;2.17;;;;;;;2.18;86.07;100551.47;5010057;28;20277;-83
2023/11/26 06:50:03;;;;;;;2.37;2.17;;;;;;;2.20;86.40;100552.38;5014461;28;20257;-80
2023/11/26 06:52:30;;;;;;;2.20;1.90;;;;;;;2.19;86.04;100561.81;5006538;28;20207;-81
2023/11/26 06:54:57;;;;;;;2.97;1.90;;;;;;;2.12;86.36;100566.81;5000871;28;20227;-82
2023/11/26 06:57:25;;;;;;;4.30;1.70;;;;;;;1.93;85.24;100573.34;4997811;28;20231;-83
2023/11/26 06:59:52;;;;;;;2.23;1.87;;;;;;;2.02;85.47;100575.22;5013992;28;20746;-83
2023/11/26 07:02:18;;;;;;;2.37;1.87;;;;;;;2.01;85.01;100587.22;5009838;28;20231;-81
2023/11/26 07:04:45;;;;;;;4.20;1.80;;;;;;;2.08;85.62;100583.94;5006938;28;20222;-80
2023/11/26 07:07:11;;;;;;;2.50;2.03;;;;;;;2.05;85.47;100585.59;5001535;28;20209;-80
2023/11/26 07:09:38;;;;;;;3.83;1.83;;;;;;;2.00;85.71;100595.78;4991178;28;20604;-81
2023/11/26 07:12:05;;;;;;;4.63;1.70;;;;;;;1.98;85.32;100600.03;4999051;28;20222;-83
2023/11/26 07:14:32;;;;;;;3.37;2.03;;;;;;;2.03;85.25;100587.28;5004588;28;20228;-81
2023/11/26 07:16:59;;;;;;;1.83;1.57;;;;;;;2.06;85.86;100606.22;5013101;28;20202;-81
2023/11/26 07:19:25;;;;;;;2.30;1.73;;;;;;;2.10;84.69;100609.69;4994127;28;20682;-81
2023/11/26 07:21:51;;;;;;;2.37;1.80;;;;;;;2.08;85.23;100612.25;4999294;28;20214;-80
2023/11/26 07:24:18;;;;;;;3.50;2.00;;;;;;;2.05;84.99;100612.19;5002917;28;20202;-82
2023/11/26 07:26:44;;;;;;;1.93;1.50;;;;;;;2.06;85.03;100616.53;5013575;28;20634;-83
2023/11/26 07:29:11;;;;;;;2.47;1.93;;;;;;;2.11;85.39;100602.00;5010729;28;20697;-85
2023/11/26 07:31:38;;;;;;;2.93;2.23;;;;;;;2.07;85.18;100601.94;4997228;28;20239;-85
2023/11/26 07:34:05;;;;;;;2.37;2.13;;;;;;;2.04;85.38;100591.56;5011193;28;20207;-82
2023/11/26 07:36:32;;;;;;;4.13;3.73;;;;;;;2.11;85.86;100565.09;5012506;28;20234;-83
2023/11/26 07:38:59;;;;;;;3.00;2.70;;;;;;;2.14;85.44;100563.44;4997599;28;20283;-80
2023/11/26 07:41:26;;;;;;;3.97;3.37;;;;;;;2.18;85.92;100565.22;5010954;28;20238;-81
2023/11/26 07:43:55;;;;;;;3.70;3.40;;;;;;;2.06;86.68;100556.41;5003096;28;20210;-80
2023/11/26 07:46:22;;;;;;;2.80;2.57;;;;;;;2.15;86.97;100547.13;5004469;28;20721;-81
2023/11/26 07:48:50;;;;;;;4.17;2.67;;;;;;;2.08;86.50;100534.13;4993017;28;20203;-83
2023/11/26 07:51:16;;;;;;;6.20;4.17;;;;;;;2.17;87.58;100511.13;4992313;28;20961;-84
2023/11/26 07:53:42;;;;;;;7.07;4.40;;;;;;;2.31;87.79;100506.19;4998856;28;20207;-82
2023/11/26 07:56:10;;;;;;;2.80;2.57;;;;;;;2.37;87.26;100501.13;4998188;28;20223;-82
2023/11/26 07:58:37;;;;;;;3.13;2.50;;;;;;;2.42;87.68;100499.50;4997232;28;20289;-83
2023/11/26 08:01:04;;;;;;;4.60;3.63;;;;;;;2.47;87.99;100492.69;4997104;28;20321;-81
2023/11/26 08:03:31;;;;;;;3.30;2.60;;;;;;;2.63;87.37;100492.94;4996318;28;20199;-81
2023/11/26 08:06:00;;;;;;;6.10;3.80;;;;;;;2.75;87.00;100488.78;4994376;28;20255;-80
2023/11/26 08:08:34;;;;;;;3.40;2.70;;;;;;;2.85;86.93;100494.94;4997332;28;20238;-81
2023/11/26 08:11:02;;;;;;;2.73;2.40;;;;;;;2.81;86.89;100500.91;4992609;28;20285;-81
2023/11/26 08:13:28;;;;;;;3.40;3.10;;;;;;;2.73;86.53;100502.50;4995813;28;20611;-79
2023/11/26 08:15:56;;;;;;;3.97;3.10;;;;;;;2.87;86.79;100485.50;4991275;28;20231;-81
2023/11/26 08:18:23;;;;;;;4.50;4.10;;;;;;;2.76;86.89;100495.69;4996655;28;20219;-80
2023/11/26 08:20:49;;;;;;;3.63;3.07;;;;;;;2.84;86.82;100485.50;4997639;28;20214;-82
2023/11/26 08:23:17;;;;;;;6.70;3.67;;;;;;;2.74;87.62;100486.22;4995391;28;20235;-83
2023/11/26 08:25:44;;;;;;;4.53;4.20;;;;;;;2.75;87.95;100467.31;4994696;28;20221;-81
2023/11/26 08:28:11;;;;;;;5.73;5.23;;;;;;;2.87;87.36;100464.91;4996245;28;20294;-81
2023/11/26 08:30:42;;;;;;;4.33;3.93;;;;;;;2.91;87.90;100461.50;4997559;28;20204;-85
2023/11/26 08:33:10;;;;;;;7.43;5.27;;;;;;;2.82;87.59;100458.84;4996193;28;20629;-81
2023/11/26 08:35:37;;;;;;;6.07;5.43;;;;;;;2.93;87.62;100456.38;4998281;28;20697;-82
2023/11/26 08:38:05;;;;;;;6.33;4.40;;;;;;;2.85;88.34;100439.94;4994438;28;20239;-83
2023/11/26 08:40:34;;;;;;;4.83;4.43;;;;;;;2.96;88.87;100426.34;4997686;28;20208;-83
2023/11/26 08:43:02;;;;;;;5.40;4.33;;;;;;;3.08;89.08;100410.16;4997929;28;20254;-81
2023/11/26 08:45:29;;;;;;;8.53;5.70;;;;;;;2.92;88.79;100408.25;4997607;28;20230;-80
2023/11/26 08:47:55;;;;;;;6.43;5.67;;;;;;;3.11;88.83;100399.00;4997104;28;20203;-82
2023/11/26 08:50:21;;;;;;;5.97;5.40;;;;;;;3.20;88.66;100393.94;4997341;28;20225;-83
2023/11/26 08:52:47;;;;;;;11.23;5.77;;;;;;;3.25;88.48;100389.72;4997180;28;20718;-84
2023/11/26 08:55:14;;;;;;;8.07;6.23;;;;;;;3.12;88.64;100399.03;4992085;28;20234;-82
2023/11/26 08:57:42;;;;;;;7.03;5.87;;;;;;;3.18;88.74;100393.91;4995200;28;20208;-83
2023/11/26 09:00:10;;;;;;;7.27;6.57;;;;;;;3.26;89.06;100383.69;4994763;28;20590;-82
2023/11/26 09:02:38;;;;;;;8.90;7.87;;;;;;;3.25;89.43;100375.94;4995671;28;20212;-83
2023/11/26 09:05:08;;;;;;;9.10;8.30;;;;;;;3.21;89.54;100369.00;4997656;28;20672;-79
2023/11/26 09:07:36;;;;;;;9.63;7.87;;;;;;;3.44;90.73;100351.19;4994331;28;20682;-81
2023/11/26 09:10:03;;;;;;;6.70;6.10;;;;;;;3.73;92.78;100318.72;4996777;28;20208;-82
2023/11/26 09:12:30;;;;;;;11.20;6.10;;;;;;;3.88;93.79;100281.78;5001745;28;20211;-82
2023/11/26 09:14:58;;;;;;;7.93;5.83;;;;;;;3.95;94.33;100244.81;5001304;28;20240;-80
2023/11/26 09:17:24;;;;;;;8.97;5.73;;;;;;;4.06;93.94;100252.59;4999017;28;20208;-84
2023/11/26 09:19:51;;;;;;;7.87;6.93;;;;;;;4.18;93.27;100252.69;4999677;28;20269;-83
2023/11/26 09:22:17;;;;;;;6.37;5.77;;;;;;;4.18;91.76;100275.06;4997185;28;20248;-81
2023/11/26 09:24:44;;;;;;;8.27;6.27;;;;;;;4.24;90.42;100312.97;4996840;28;20218;-81
2023/11/26 09:27:10;;;;;;;8.47;7.63;;;;;;;4.16;88.00;100342.22;4995115;28;20205;-83
2023/11/26 09:29:36;;;;;;;6.37;5.77;;;;;;;4.18;86.96;100375.81;5013483;28;20211;-83
2023/11/26 09:32:05;;;;;;;6.13;5.50;;;;;;;4.02;85.33;100436.81;5011025;28;20566;-81
2023/11/26 09:34:32;;;;;;;6.50;5.90;;;;;;;3.94;85.12;100474.63;5015569;28;20208;-86
2023/11/26 09:37:04;;;;;;;6.33;5.70;;;;;;;3.95;85.30;100492.72;5003960;28;20260;-84
2023/11/26 09:39:31;;;;;;;7.77;5.93;;;;;;;3.97;85.77;100488.44;5005594;28;20212;-85
2023/11/26 09:41:57;;;;;;;7.77;6.00;;;;;;;4.06;85.46;100497.97;4999898;28;20221;-85
2023/11/26 09:44:24;;;;;;;6.77;6.17;;;;;;;4.10;85.74;100502.34;5058271;23;20259;-80
2023/11/26 09:46:52;;;;;;;6.50;5.90;;;;;;;4.06;85.59;100510.91;4984938;28;20225;-80
2023/11/26 09:49:20;;;;;;;11.50;7.83;;;;;;;3.96;86.05;100515.13;4977413;28;20714;-80
2023/11/26 09:51:52;;;;;;;6.63;6.00;;;;;;;3.69;86.00;100509.72;4970401;28;20206;-80
2023/11/26 09:54:20;;;;;;;6.37;5.77;;;;;;;3.79;87.21;100488.28;4977363;28;20233;-80
2023/11/26 09:56:48;;;;;;;6.40;5.80;;;;;;;4.11;87.64;100467.91;4972210;28;20222;-81
2023/11/26 09:59:24;;;;;;;7.03;6.33;;;;;;;4.27;87.09;100445.63;4977942;28;20215;-80
2023/11/26 10:01:50;;;;;;;6.80;6.30;;;;;;;4.44;86.88;100445.75;4973226;28;20238;-80
2023/11/26 10:04:17;;;;;;;6.93;6.30;;;;;;;4.48;87.29;100449.19;4978052;28;20238;-80
2023/11/26 10:06:50;;;;;;;8.03;7.23;;;;;;;4.32;86.60;100461.16;4977366;28;20244;-80
2023/11/26 10:09:17;;;;;;;6.70;6.07;;;;;;;4.49;86.42;100461.28;4977516;28;20262;-80
2023/11/26 10:11:44;;;;;;;6.30;5.77;;;;;;;4.58;86.16;100466.50;4976939;28;20301;-80
2023/11/26 10:14:14;;;;;;;4.97;4.43;;;;;;;4.50;86.46;100468.16;4977713;28;20223;-80
2023/11/26 10:16:41;;;;;;;5.20;4.80;;;;;;;4.47;86.24;100471.59;4978110;28;20233;-80
2023/11/26 10:19:08;;;;;;;5.10;4.60;;;;;;;4.51;86.31;100477.66;4977562;28;20758;-80
2023/11/26 10:21:34;;;;;;;4.80;4.40;;;;;;;4.49;86.00;100471.63;4977238;28;20240;-81
2023/11/26 10:24:03;;;;;;;4.87;3.67;;;;;;;4.56;86.17;100468.22;4980292;28;20236;-82
2023/11/26 10:26:31;;;;;;;4.00;3.70;;;;;;;4.54;86.28;100462.19;4976934;28;20247;-81
2023/11/26 10:28:59;;;;;;;3.90;3.43;;;;;;;4.60;85.64;100469.97;4975230;28;20294;-80
2023/11/26 10:31:26;;;;;;;4.03;3.73;;;;;;;4.53;85.83;100468.19;4977927;28;20236;-81
2023/11/26 10:33:52;;;;;;;4.70;4.30;;;;;;;4.56;86.38;100461.31;4977192;28;20214;-79
2023/11/26 10:36:29;;;;;;;6.87;4.30;;;;;;;4.60;86.23;100462.22;4975908;28;20233;-80
2023/11/26 10:38:56;;;;;;;4.17;3.77;;;;;;;4.58;86.15;100467.38;4976967;28;20259;-80
2023/11/26 10:41:25;;;;;;;4.57;4.17;;;;;;;4.61;86.33;100457.91;4975260;28;20214;-80
2023/11/26 10:43:55;;;;;;;5.23;4.83;;;;;;;4.61;87.42;100447.56;4976199;28;20234;-80
2023/11/26 10:46:25;;;;;;;6.23;5.77;;;;;;;4.63;87.50;100438.94;4976187;28;20202;-80
2023/11/26 10:48:58;;;;;;;4.40;3.97;;;;;;;4.59;88.25;100429.44;4976529;28;20634;-80
2023/11/26 10:51:28;;;;;;;5.37;4.87;;;;;;;4.55;88.34;100407.03;4975742;28;20259;-80
2023/11/26 10:54:01;;;;;;;5.20;3.60;;;;;;;4.58;88.84;100387.22;4968843;28;20220;-79
2023/11/26 10:56:37;;;;;;;3.63;3.33;;;;;;;4.62;89.20;100371.72;4976913;28;20315;-80
2023/11/26 10:59:07;;;;;;;4.10;3.70;;;;;;;4.65;89.70;100358.81;4976853;28;20208;-80
2023/11/26 11:01:34;;;;;;;3.63;3.33;;;;;;;4.62;88.92;100361.38;4976017;28;20211;-80
2023/11/26 11:04:02;;;;;;;4.77;3.20;;;;;;;4.63;89.25;100370.88;4976078;28;20618;-79
2023/11/26 11:06:30;;;;;;;3.30;3.00;;;;;;;4.71;88.73;100379.53;4975003;28;20217;-80
2023/11/26 11:08:57;;;;;;;3.00;2.67;;;;;;;4.71;88.96;100370.03;4967950;28;20201;-79
2023/11/26 11:11:35;;;;;;;4.77;3.70;;;;;;;4.67;88.93;100382.94;4975246;28;20201;-80
2023/11/26 11:14:02;;;;;;;4.67;3.00;;;;;;;4.67;88.98;100360.53;4968995;28;20689;-80
2023/11/26 11:16:29;;;;;;;2.97;2.70;;;;;;;4.63;90.04;100352.78;4975635;28;20255;-80
2023/11/26 11:18:56;;;;;;;2.70;2.50;;;;;;;4.56;90.16;100336.38;4975943;28;20211;-79
2023/11/26 11:21:24;;;;;;;3.07;2.87;;;;;;;4.49;91.43;100322.56;4975909;28;20212;-80
2023/11/26 11:23:52;;;;;;;4.50;3.83;;;;;;;4.56;91.43;100298.47;4976444;28;20210;-79
2023/11/26 11:26:20;;;;;;;4.00;3.70;;;;;;;4.54;92.72;100291.59;4976422;28;20631;-79
2023/11/26 11:28:49;;;;;;;5.40;4.93;;;;;;;4.50;92.47;100277.78;4976029;28;20570;-79
2023/11/26 11:31:16;;;;;;;4.20;3.80;;;;;;;4.49;92.82;100263.13;4976562;28;20233;-79
2023/11/26 11:34:18;;;;;;;4.53;4.20;;;;;;;4.34;94.01;100248.44;4975772;28;20202;-79
2023/11/26 11:36:55;;;;;;;11.63;10.63;;;;;;;4.43;93.16;100241.56;4975927;28;20227;-79